Time;durP1;ratioP1;P1;durP2;ratioP2;P2;SDS_P1;SDS_P2;PMS_P1;PMS_P2;Temp;Humidity;BMP_temperature;BMP_pressure;BME280_temperature;BME280_humidity;BME280_pressure;Samples;Min_cycle;Max_cycle;Signal;HPM_P1;HPM_P2
2021/12/07 00:01:14;;;;;;;12.00;9.27;;;;;;;1.63;100.00;97506.41;5112583;28;20696;-64
2021/12/07 00:03:42;;;;;;;10.47;8.87;;;;;;;1.66;100.00;97510.66;5110349;28;20277;-64
2021/12/07 00:06:09;;;;;;;12.60;9.03;;;;;;;1.63;100.00;97506.41;5109693;28;20217;-64
2021/12/07 00:08:36;;;;;;;10.57;8.63;;;;;;;1.70;100.00;97488.75;5112520;28;20271;-64
2021/12/07 00:11:04;;;;;;;10.60;8.50;;;;;;;1.66;100.00;97495.84;5108928;28;20744;-64
2021/12/07 00:13:36;;;;;;;9.67;7.80;;;;;;;1.70;100.00;97487.00;5112154;28;20206;-64
2021/12/07 00:16:03;;;;;;;8.50;7.07;;;;;;;1.74;100.00;97487.72;5112513;28;20214;-64
2021/12/07 00:18:29;;;;;;;8.50;7.30;;;;;;;1.77;100.00;97485.81;5112496;28;20214;-64
2021/12/07 00:20:56;;;;;;;9.30;7.27;;;;;;;1.83;100.00;97487.31;5108607;28;20219;-64
2021/12/07 00:23:22;;;;;;;8.53;7.20;;;;;;;1.86;100.00;97492.38;5110093;28;20707;-64
2021/12/07 00:25:49;;;;;;;8.23;6.57;;;;;;;1.90;100.00;97489.56;5112196;28;20221;-64
2021/12/07 00:28:19;;;;;;;8.33;6.63;;;;;;;1.93;100.00;97479.00;5112272;28;20217;-64
2021/12/07 00:30:47;;;;;;;8.50;6.57;;;;;;;1.94;100.00;97475.47;5109001;28;20219;-64
2021/12/07 00:33:19;;;;;;;10.37;7.37;;;;;;;2.00;100.00;97484.75;5111895;27;20279;-64
2021/12/07 00:35:46;;;;;;;8.13;6.70;;;;;;;2.01;100.00;97487.31;5112125;28;20241;-64
2021/12/07 00:38:15;;;;;;;7.80;6.23;;;;;;;1.97;100.00;97485.75;5111911;28;20210;-64
2021/12/07 00:40:44;;;;;;;7.43;5.87;;;;;;;2.00;100.00;97482.16;5108982;28;20215;-64
2021/12/07 00:43:11;;;;;;;6.97;5.40;;;;;;;2.02;100.00;97488.16;5109251;28;20240;-64
2021/12/07 00:45:41;;;;;;;6.47;5.00;;;;;;;2.04;100.00;97500.22;5100649;28;20219;-64
2021/12/07 00:48:08;;;;;;;6.70;5.00;;;;;;;2.11;100.00;97488.59;5099578;28;20211;-64
2021/12/07 00:50:37;;;;;;;5.47;4.17;;;;;;;2.14;100.00;97493.66;5104409;28;20571;-64
2021/12/07 00:53:05;;;;;;;4.90;3.93;;;;;;;2.09;100.00;97489.56;5101202;28;20211;-64
2021/12/07 00:55:35;;;;;;;5.80;3.60;;;;;;;2.08;100.00;97483.50;5100279;28;20695;-64
2021/12/07 00:58:11;;;;;;;4.70;3.77;;;;;;;2.11;100.00;97492.94;5101436;28;20210;-64
2021/12/07 01:00:40;;;;;;;3.53;3.20;;;;;;;1.97;100.00;97485.75;5103242;28;20228;-64
2021/12/07 01:03:07;;;;;;;3.70;3.37;;;;;;;1.91;100.00;97486.03;5100339;28;20581;-64
2021/12/07 01:05:35;;;;;;;5.57;3.57;;;;;;;1.85;100.00;97482.88;5099107;28;20212;-64
2021/12/07 01:08:21;;;;;;;4.17;3.40;;;;;;;1.73;100.00;97476.44;5110652;28;20218;-64
2021/12/07 01:24:42;;;;;;;5.60;3.77;;;;;;;1.82;100.00;97476.03;5109827;28;20248;-64
2021/12/07 01:27:13;;;;;;;4.80;3.47;;;;;;;1.84;100.00;97474.19;5110974;28;20308;-64
2021/12/07 01:29:42;;;;;;;6.07;4.43;;;;;;;1.82;100.00;97480.38;5108181;28;20245;-64
2021/12/07 01:32:22;;;;;;;5.17;4.03;;;;;;;1.80;100.00;97477.88;5107886;28;20213;-64
2021/12/07 01:37:52;;;;;;;5.47;3.97;;;;;;;1.95;100.00;97471.94;5081043;28;20384;-64
2021/12/07 01:40:33;;;;;;;4.37;3.33;;;;;;;1.94;100.00;97475.47;5108931;28;20214;-64
2021/12/07 01:59:36;;;;;;;4.07;3.23;;;;;;;2.09;100.00;97487.78;5108838;28;20284;-64
2021/12/07 02:02:05;;;;;;;4.43;3.23;;;;;;;2.03;100.00;97482.84;5110608;28;20306;-64
2021/12/07 02:04:33;;;;;;;4.27;3.27;;;;;;;2.09;100.00;97479.97;5110326;28;20746;-64
2021/12/07 02:07:00;;;;;;;4.23;2.93;;;;;;;2.06;100.00;97490.56;5105931;28;20809;-64
2021/12/07 02:09:27;;;;;;;4.07;2.87;;;;;;;2.05;100.00;97494.09;5107973;28;20660;-64
2021/12/07 02:11:59;;;;;;;4.53;2.87;;;;;;;2.02;100.00;97491.59;5110487;28;20245;-64
2021/12/07 02:14:25;;;;;;;3.10;2.80;;;;;;;2.04;100.00;97487.19;5110794;28;20221;-64
2021/12/07 02:16:55;;;;;;;3.23;2.70;;;;;;;2.11;100.00;97491.19;5110550;28;20229;-64
2021/12/07 02:19:22;;;;;;;2.80;2.53;;;;;;;2.06;100.00;97487.94;5107438;28;20671;-64
2021/12/07 02:21:51;;;;;;;3.40;2.67;;;;;;;2.03;100.00;97492.47;5110040;28;20221;-64
2021/12/07 02:24:18;;;;;;;2.60;2.40;;;;;;;2.05;100.00;97488.88;5110250;28;20234;-64
2021/12/07 02:26:44;;;;;;;3.07;2.70;;;;;;;2.09;100.00;97494.78;5107082;28;20214;-64
2021/12/07 02:29:11;;;;;;;3.80;2.67;;;;;;;2.11;100.00;97490.34;5107441;28;20557;-64
2021/12/07 02:31:38;;;;;;;3.27;2.40;;;;;;;2.12;100.00;97489.41;5108431;28;20582;-64
2021/12/07 02:34:05;;;;;;;3.40;2.80;;;;;;;2.07;100.00;97492.25;5109978;28;20217;-64
2021/12/07 02:36:32;;;;;;;3.80;2.60;;;;;;;2.09;100.00;97495.59;5107047;28;20667;-64
2021/12/07 02:39:00;;;;;;;3.30;2.60;;;;;;;2.18;100.00;97503.03;5109810;28;20210;-64
2021/12/07 02:41:26;;;;;;;3.00;2.60;;;;;;;2.19;100.00;97507.31;5110112;28;20217;-64
2021/12/07 02:43:53;;;;;;;4.57;3.10;;;;;;;2.19;100.00;97504.72;5109909;28;20233;-64
2021/12/07 02:46:19;;;;;;;2.97;2.50;;;;;;;2.22;100.00;97507.19;5111672;28;20217;-64
2021/12/07 02:48:46;;;;;;;3.60;2.80;;;;;;;2.24;100.00;97518.38;5113154;28;20214;-64
2021/12/07 02:51:12;;;;;;;2.90;2.47;;;;;;;2.25;100.00;97525.28;5114194;28;20221;-64
2021/12/07 02:53:39;;;;;;;3.40;2.53;;;;;;;2.28;100.00;97532.13;5114082;28;20206;-64
2021/12/07 02:56:08;;;;;;;2.53;2.20;;;;;;;2.34;100.00;97521.41;5112178;28;20210;-64
2021/12/07 02:58:36;;;;;;;2.90;2.23;;;;;;;2.33;100.00;97527.53;5111551;28;20213;-64
2021/12/07 03:01:10;;;;;;;2.90;2.47;;;;;;;2.27;100.00;97530.44;5113664;28;20586;-64
2021/12/07 03:03:42;;;;;;;3.70;2.40;;;;;;;2.22;100.00;97532.41;5113996;28;20602;-65
2021/12/07 03:06:17;;;;;;;4.10;2.87;;;;;;;2.16;100.00;97541.34;5099974;28;20218;-64
2021/12/07 03:27:56;;;;;;;2.87;2.53;;;;;;;2.24;100.00;97522.75;5103804;28;20271;-64
2021/12/07 03:30:24;;;;;;;3.37;2.53;;;;;;;2.20;100.00;97535.06;5102792;28;20211;-63
2021/12/07 03:32:50;;;;;;;5.87;2.70;;;;;;;2.26;100.00;97540.00;5102136;28;20215;-63
2021/12/07 03:35:17;;;;;;;3.37;2.50;;;;;;;2.26;100.00;97534.78;5102559;28;20225;-64
2021/12/07 03:37:44;;;;;;;2.53;2.23;;;;;;;2.25;100.00;97538.31;5105675;28;20221;-64
2021/12/07 03:40:13;;;;;;;2.20;1.87;;;;;;;2.26;100.00;97540.00;5102589;28;20689;-64
2021/12/07 03:42:39;;;;;;;3.20;2.20;;;;;;;2.27;100.00;97539.09;5101646;28;20684;-64
2021/12/07 03:45:09;;;;;;;2.47;2.10;;;;;;;2.26;100.00;97533.97;5102633;28;20583;-64
2021/12/07 03:47:36;;;;;;;2.23;2.00;;;;;;;2.22;100.00;97543.69;5105678;28;20585;-64
2021/12/07 03:50:04;;;;;;;2.97;1.80;;;;;;;2.28;100.00;97548.59;5100912;28;20222;-64
2021/12/07 03:52:30;;;;;;;2.20;1.70;;;;;;;2.28;100.00;97548.59;5101500;28;20211;-64
2021/12/07 03:54:56;;;;;;;2.50;2.07;;;;;;;2.28;100.00;97551.19;5102410;28;20222;-65
2021/12/07 03:57:23;;;;;;;2.40;2.00;;;;;;;2.34;100.00;97553.53;5104604;28;20213;-64
2021/12/07 03:59:49;;;;;;;2.23;1.97;;;;;;;2.38;100.00;97570.72;5102941;28;20213;-64
2021/12/07 04:02:17;;;;;;;3.83;2.00;;;;;;;2.40;100.00;97568.06;5101353;28;20207;-64
2021/12/07 04:04:44;;;;;;;1.90;1.70;;;;;;;2.28;100.00;97574.66;5104179;28;20230;-64
2021/12/07 04:07:10;;;;;;;2.77;1.60;;;;;;;2.32;100.00;97580.63;5107204;28;20215;-64
2021/12/07 04:09:37;;;;;;;1.80;1.70;;;;;;;2.40;100.00;97578.50;5112513;28;20221;-64
2021/12/07 04:12:04;;;;;;;1.87;1.70;;;;;;;2.41;100.00;97575.81;5112518;28;20288;-64
2021/12/07 04:14:31;;;;;;;2.10;1.80;;;;;;;2.48;100.00;97590.25;5112232;28;20214;-64
2021/12/07 04:16:57;;;;;;;1.73;1.63;;;;;;;2.55;100.00;97591.66;5100037;28;20210;-63
2021/12/07 04:19:25;;;;;;;2.63;2.03;;;;;;;2.62;100.00;97606.13;5103233;28;20210;-63
2021/12/07 04:21:52;;;;;;;1.97;1.70;;;;;;;2.64;100.00;97612.09;5100977;28;20219;-63
2021/12/07 04:24:18;;;;;;;2.50;1.87;;;;;;;2.65;100.00;97611.22;5101249;28;20265;-63
2021/12/07 04:26:45;;;;;;;2.00;1.80;;;;;;;2.66;100.00;97618.13;5104648;28;20206;-62
2021/12/07 04:29:11;;;;;;;2.77;1.90;;;;;;;2.69;100.00;97617.13;5109895;28;20211;-62
2021/12/07 04:31:38;;;;;;;1.93;1.70;;;;;;;2.65;100.00;97624.25;5112714;28;20557;-63
2021/12/07 04:34:04;;;;;;;1.90;1.57;;;;;;;2.49;100.00;97615.44;5112604;28;20210;-63
2021/12/07 04:36:32;;;;;;;3.03;1.67;;;;;;;2.36;100.00;97622.13;5112146;28;20702;-63
2021/12/07 04:38:59;;;;;;;2.00;1.60;;;;;;;2.26;100.00;97620.00;5109281;28;20214;-63
2021/12/07 04:41:31;;;;;;;2.07;1.50;;;;;;;2.20;100.00;97618.47;5110524;28;20213;-63
2021/12/07 04:43:57;;;;;;;3.73;1.70;;;;;;;2.16;100.00;97619.56;5111799;28;20237;-63
2021/12/07 04:46:32;;;;;;;2.27;1.70;;;;;;;2.24;100.00;97625.25;5108574;28;20219;-64
2021/12/07 04:49:33;;;;;;;2.70;1.83;;;;;;;2.35;100.00;97623.03;5111769;28;20213;-64
2021/12/07 04:57:43;;;;;;;3.70;1.80;;;;;;;2.46;100.00;97648.63;5111409;28;20288;-64
2021/12/07 05:00:15;;;;;;;2.23;1.60;;;;;;;2.33;100.00;97635.28;5108380;28;20579;-64
2021/12/07 05:02:44;;;;;;;3.30;1.63;;;;;;;2.11;100.00;97641.50;5111384;28;20221;-63
2021/12/07 05:05:13;;;;;;;3.73;1.50;;;;;;;1.95;100.00;97650.88;5105086;28;20245;-64
2021/12/07 05:07:47;;;;;;;4.27;1.80;;;;;;;1.84;100.00;97645.31;5095014;28;20218;-64
2021/12/07 05:10:22;;;;;;;4.10;1.70;;;;;;;1.72;100.00;97641.44;5103721;28;20216;-64
2021/12/07 05:15:57;;;;;;;2.87;1.80;;;;;;;1.60;100.00;97647.16;5104230;28;20305;-64
2021/12/07 05:18:38;;;;;;;4.30;2.37;;;;;;;1.58;100.00;97648.13;5108366;28;20296;-64
2021/12/07 05:23:58;;;;;;;3.93;2.30;;;;;;;1.46;100.00;97661.66;5107525;28;20269;-64
2021/12/07 05:34:41;;;;;;;4.20;2.37;;;;;;;1.69;100.00;97688.47;5100124;28;20638;-64
2021/12/07 05:39:54;;;;;;;6.73;2.30;;;;;;;1.88;100.00;97684.19;5102369;28;20323;-64
2021/12/07 05:42:21;;;;;;;3.93;2.57;;;;;;;1.99;100.00;97681.97;5099341;28;20302;-64
2021/12/07 05:44:48;;;;;;;3.07;2.60;;;;;;;2.02;100.00;97689.66;5105293;28;20243;-64
2021/12/07 05:47:14;;;;;;;5.57;2.93;;;;;;;2.09;100.00;97693.69;5110899;28;20236;-64
2021/12/07 05:49:41;;;;;;;3.70;2.47;;;;;;;2.16;100.00;97689.94;5108072;28;20233;-63
2021/12/07 05:52:07;;;;;;;7.73;2.73;;;;;;;2.24;100.00;97693.03;5110738;28;20206;-64
2021/12/07 05:54:34;;;;;;;6.07;2.43;;;;;;;2.27;100.00;97708.53;5110751;28;20213;-63
2021/12/07 05:57:02;;;;;;;6.77;2.50;;;;;;;2.33;100.00;97708.28;5110538;28;20213;-64
2021/12/07 05:59:28;;;;;;;4.73;2.43;;;;;;;2.39;100.00;97710.63;5106966;28;20226;-64
2021/12/07 06:01:55;;;;;;;4.93;2.50;;;;;;;2.48;100.00;97707.63;5100205;28;20210;-64
2021/12/07 06:04:21;;;;;;;4.87;2.47;;;;;;;2.48;100.00;97712.84;5111053;28;20255;-64
2021/12/07 06:06:48;;;;;;;3.93;2.60;;;;;;;2.46;100.00;97706.81;5105769;28;20670;-64
2021/12/07 06:09:14;;;;;;;8.47;2.83;;;;;;;2.46;100.00;97712.03;5108373;28;20219;-64
2021/12/07 06:11:42;;;;;;;7.47;2.67;;;;;;;2.46;100.00;97727.69;5110066;28;20241;-63
2021/12/07 06:14:11;;;;;;;5.07;2.73;;;;;;;2.55;100.00;97726.44;5110021;28;20214;-64
2021/12/07 06:16:38;;;;;;;5.73;2.80;;;;;;;2.59;100.00;97731.47;5109044;28;20297;-64
2021/12/07 06:19:04;;;;;;;7.10;2.90;;;;;;;2.62;100.00;97731.31;5108332;28;20222;-64
2021/12/07 06:21:31;;;;;;;6.40;2.67;;;;;;;2.69;100.00;97735.34;5110238;28;20585;-64
2021/12/07 06:23:57;;;;;;;5.60;2.30;;;;;;;2.75;100.00;97736.88;5109884;28;20242;-64
2021/12/07 06:26:23;;;;;;;4.37;2.93;;;;;;;2.81;100.00;97741.81;5107415;28;20675;-64
2021/12/07 06:28:50;;;;;;;3.70;2.20;;;;;;;2.83;100.00;97745.19;5107559;28;20225;-64
2021/12/07 06:31:18;;;;;;;6.07;2.03;;;;;;;2.93;100.00;97752.53;5110133;28;20584;-64
2021/12/07 06:33:44;;;;;;;4.30;2.23;;;;;;;2.95;100.00;97749.84;5109876;28;20221;-64
2021/12/07 06:36:13;;;;;;;4.13;2.30;;;;;;;2.95;100.00;97758.50;5109450;28;20217;-64
2021/12/07 06:38:39;;;;;;;4.97;2.10;;;;;;;2.95;100.00;97757.69;5107863;28;20245;-64
2021/12/07 06:41:06;;;;;;;4.47;2.10;;;;;;;2.99;100.00;97754.88;5109742;28;20214;-64
2021/12/07 06:43:33;;;;;;;5.33;2.23;;;;;;;3.05;100.00;97757.19;5109565;28;20214;-64
2021/12/07 06:46:00;;;;;;;4.07;2.10;;;;;;;3.05;100.00;97765.03;5109798;28;20218;-64
2021/12/07 06:48:27;;;;;;;4.50;1.80;;;;;;;2.99;100.00;97767.91;5106920;28;20211;-64
2021/12/07 06:50:54;;;;;;;3.23;1.97;;;;;;;3.01;100.00;97766.06;5109920;28;20214;-64
2021/12/07 06:53:20;;;;;;;5.83;2.07;;;;;;;3.01;100.00;97763.47;5108293;28;20210;-65
2021/12/07 06:55:47;;;;;;;3.73;1.83;;;;;;;2.95;100.00;97763.72;5109981;28;20206;-65
2021/12/07 06:58:14;;;;;;;4.27;2.17;;;;;;;2.90;100.00;97768.34;5109740;28;20214;-64
2021/12/07 07:00:42;;;;;;;2.47;1.60;;;;;;;2.84;100.00;97780.81;5108432;28;20211;-64
2021/12/07 07:03:08;;;;;;;4.77;2.20;;;;;;;2.81;100.00;97781.78;5110029;28;20214;-64
2021/12/07 07:05:36;;;;;;;6.40;2.30;;;;;;;2.72;100.00;97782.19;5110224;28;20229;-64
2021/12/07 07:08:03;;;;;;;4.93;1.93;;;;;;;2.66;100.00;97790.28;5103646;28;20217;-64
2021/12/07 07:10:30;;;;;;;5.87;2.47;;;;;;;2.69;100.00;97794.53;5109804;28;20218;-64
2021/12/07 07:12:57;;;;;;;8.30;2.67;;;;;;;2.71;100.00;97790.94;5109359;28;20238;-64
2021/12/07 07:15:23;;;;;;;3.33;2.17;;;;;;;2.73;100.00;97807.38;5109902;28;20221;-64
2021/12/07 07:17:50;;;;;;;6.90;2.27;;;;;;;2.73;100.00;97812.59;5104615;28;20211;-64
2021/12/07 07:20:17;;;;;;;6.37;2.30;;;;;;;2.77;100.00;97808.09;5109740;28;20217;-63
2021/12/07 07:22:46;;;;;;;7.37;2.40;;;;;;;2.73;100.00;97798.69;5109162;28;20264;-63
2021/12/07 07:25:13;;;;;;;4.43;2.30;;;;;;;2.77;100.00;97808.94;5109553;28;20241;-63
2021/12/07 07:27:40;;;;;;;7.17;2.40;;;;;;;2.76;100.00;97811.59;5105997;28;20211;-63
2021/12/07 07:30:09;;;;;;;6.00;2.10;;;;;;;2.74;100.00;97809.06;5109513;28;20214;-63
2021/12/07 07:32:36;;;;;;;3.53;2.10;;;;;;;2.77;100.00;97803.72;5112552;28;20221;-63
2021/12/07 07:35:04;;;;;;;4.63;2.53;;;;;;;2.78;100.00;97815.84;5113188;28;20588;-63
2021/12/07 07:37:30;;;;;;;5.80;2.60;;;;;;;2.78;100.00;97813.25;5109689;28;20672;-63
2021/12/07 07:39:58;;;;;;;8.30;3.63;;;;;;;2.79;100.00;97801.88;5113177;28;20217;-63
2021/12/07 07:42:25;;;;;;;9.30;3.10;;;;;;;2.87;100.00;97815.44;5113168;28;20216;-63
2021/12/07 07:44:51;;;;;;;5.13;2.33;;;;;;;2.91;100.00;97811.78;5110952;28;20707;-63
2021/12/07 07:47:18;;;;;;;6.20;2.60;;;;;;;2.98;100.00;97818.44;5110045;28;20210;-63
2021/12/07 07:49:44;;;;;;;5.30;2.53;;;;;;;3.00;100.00;97819.19;5112945;28;20225;-63
2021/12/07 07:52:11;;;;;;;8.73;2.67;;;;;;;3.06;100.00;97813.69;5112674;28;20218;-63
2021/12/07 07:54:37;;;;;;;7.70;2.87;;;;;;;3.03;100.00;97832.13;5112964;28;20237;-63
2021/12/07 07:57:05;;;;;;;7.40;3.03;;;;;;;2.93;100.00;97830.00;5110278;28;20214;-63
2021/12/07 07:59:32;;;;;;;5.93;2.53;;;;;;;2.68;100.00;97824.97;5112226;28;20216;-63
2021/12/07 08:01:58;;;;;;;5.37;2.60;;;;;;;2.64;100.00;97823.41;5112803;28;20619;-62
2021/12/07 08:04:25;;;;;;;7.10;2.90;;;;;;;2.66;100.00;97829.44;5112347;28;20240;-63
2021/12/07 08:06:51;;;;;;;6.17;3.00;;;;;;;2.84;100.00;97825.16;5100580;28;20210;-63
2021/12/07 08:09:18;;;;;;;5.03;2.43;;;;;;;2.90;100.00;97828.38;5102438;28;20214;-62
2021/12/07 08:11:44;;;;;;;6.67;2.50;;;;;;;3.00;100.00;97827.03;5098433;28;20601;-62
2021/12/07 08:14:12;;;;;;;10.60;2.47;;;;;;;3.04;100.00;97839.03;5107358;28;20224;-62
2021/12/07 08:16:39;;;;;;;8.03;2.70;;;;;;;3.01;100.00;97844.38;5112025;28;20210;-62
2021/12/07 08:19:05;;;;;;;7.07;2.40;;;;;;;3.10;100.00;97848.34;5103676;28;20214;-62
2021/12/07 08:21:32;;;;;;;5.83;2.60;;;;;;;3.09;100.00;97852.75;5107275;28;20223;-62
2021/12/07 08:23:58;;;;;;;5.93;2.90;;;;;;;3.13;100.00;97859.50;5110585;28;20206;-62
2021/12/07 08:26:26;;;;;;;6.23;3.00;;;;;;;3.18;100.00;97854.94;5111168;28;20334;-62
2021/12/07 08:28:55;;;;;;;6.13;2.50;;;;;;;3.25;100.00;97856.34;5111581;28;20221;-63
2021/12/07 08:31:24;;;;;;;5.20;2.60;;;;;;;3.29;100.00;97855.31;5110192;28;20202;-62
2021/12/07 08:33:50;;;;;;;4.23;2.17;;;;;;;3.41;100.00;97849.53;5109929;28;20210;-62
2021/12/07 08:36:17;;;;;;;7.30;2.37;;;;;;;3.45;100.00;97851.09;5105222;28;20218;-62
2021/12/07 08:38:44;;;;;;;7.97;2.57;;;;;;;3.48;100.00;97850.94;5108915;28;20213;-62
2021/12/07 08:41:10;;;;;;;3.43;1.80;;;;;;;3.57;100.00;97849.69;5108027;28;20214;-62
2021/12/07 08:43:38;;;;;;;3.57;1.90;;;;;;;3.56;100.00;97851.44;5106048;28;20237;-62
2021/12/07 08:46:05;;;;;;;5.40;1.90;;;;;;;3.67;100.00;97861.41;5105938;28;20267;-62
2021/12/07 08:48:35;;;;;;;4.60;2.00;;;;;;;3.63;100.00;97852.88;5107769;28;20218;-62
2021/12/07 08:51:02;;;;;;;6.67;1.90;;;;;;;3.64;100.00;97872.84;5108825;28;20615;-62
2021/12/07 08:53:30;;;;;;;4.00;2.00;;;;;;;3.67;100.00;97870.09;5106276;28;20215;-62
2021/12/07 09:01:29;;;;;;;3.97;2.07;;;;;;;3.77;100.00;97873.97;5105079;28;20333;-62
2021/12/07 09:03:59;;;;;;;8.17;2.03;;;;;;;3.83;100.00;97860.63;5100460;28;20695;-63
2021/12/07 09:06:26;;;;;;;6.70;1.87;;;;;;;3.89;100.00;97875.16;5102891;28;20233;-62
2021/12/07 09:08:53;;;;;;;3.83;1.70;;;;;;;3.86;100.00;97873.53;5107972;28;20221;-63
2021/12/07 09:11:19;;;;;;;5.37;1.77;;;;;;;3.89;100.00;97883.88;5103781;28;20266;-62
2021/12/07 09:13:47;;;;;;;4.53;1.83;;;;;;;3.95;100.00;97891.41;5107034;28;20220;-62
2021/12/07 09:16:17;;;;;;;6.03;1.67;;;;;;;3.97;100.00;97876.50;5108247;28;20211;-62
2021/12/07 09:18:44;;;;;;;3.13;1.70;;;;;;;3.97;100.00;97876.50;5107048;28;20219;-62
2021/12/07 09:21:12;;;;;;;3.90;1.87;;;;;;;3.83;100.00;97878.91;5106235;28;20203;-62
2021/12/07 09:23:39;;;;;;;3.83;2.00;;;;;;;3.60;100.00;97881.75;5110854;28;20504;-62
2021/12/07 09:26:06;;;;;;;5.90;1.67;;;;;;;3.48;100.00;97890.13;5109560;28;20241;-62
2021/12/07 09:28:34;;;;;;;6.50;2.10;;;;;;;3.29;100.00;97886.66;5106424;28;20210;-63
2021/12/07 09:31:00;;;;;;;5.37;2.07;;;;;;;3.17;100.00;97876.75;5110447;28;20241;-62
2021/12/07 09:33:30;;;;;;;5.97;1.83;;;;;;;3.12;100.00;97883.09;5111592;28;20210;-63
2021/12/07 09:35:57;;;;;;;6.80;1.70;;;;;;;3.09;100.00;97888.44;5111154;28;20212;-62
2021/12/07 09:38:26;;;;;;;3.97;2.00;;;;;;;3.13;100.00;97896.06;5108572;28;20210;-63
2021/12/07 09:40:53;;;;;;;5.73;1.80;;;;;;;3.22;100.00;97893.06;5106228;28;20587;-62
2021/12/07 09:43:20;;;;;;;7.80;1.93;;;;;;;3.37;100.00;97897.59;5111087;28;20231;-62
2021/12/07 09:45:47;;;;;;;4.47;1.97;;;;;;;3.46;100.00;97899.81;5111038;28;20239;-62
2021/12/07 09:48:14;;;;;;;4.13;1.90;;;;;;;3.63;100.00;97896.44;5108936;28;20210;-62
2021/12/07 09:50:44;;;;;;;3.57;1.60;;;;;;;3.71;100.00;97889.94;5110954;28;20225;-62
2021/12/07 09:53:13;;;;;;;4.00;1.83;;;;;;;3.71;100.00;97884.72;5110612;28;20220;-62
2021/12/07 09:55:41;;;;;;;4.60;1.90;;;;;;;3.78;100.00;97887.91;5108533;28;20210;-62
2021/12/07 09:58:08;;;;;;;4.67;2.23;;;;;;;3.83;100.00;97888.50;5107928;28;20212;-62
2021/12/07 10:00:37;;;;;;;7.17;2.03;;;;;;;3.84;100.00;97879.78;5110809;28;20218;-62
2021/12/07 10:03:04;;;;;;;4.27;1.57;;;;;;;3.82;100.00;97877.22;5110619;28;20262;-62
2021/12/07 10:05:34;;;;;;;4.90;1.83;;;;;;;3.85;100.00;97879.69;5101625;28;20234;-62
2021/12/07 10:08:03;;;;;;;4.23;1.70;;;;;;;3.82;100.00;97894.66;5110191;28;20276;-62
2021/12/07 10:10:32;;;;;;;5.73;1.90;;;;;;;3.83;100.00;97888.50;5101801;28;20221;-62
2021/12/07 10:13:00;;;;;;;6.40;1.50;;;;;;;3.87;100.00;97885.72;5103658;28;20242;-62
2021/12/07 10:15:29;;;;;;;5.03;1.70;;;;;;;3.92;100.00;97867.19;5100932;28;20842;-62
2021/12/07 10:18:04;;;;;;;3.13;1.60;;;;;;;4.01;100.00;97877.19;5109517;28;20212;-62
2021/12/07 10:20:38;;;;;;;4.60;1.93;;;;;;;3.96;98.06;97884.41;5101506;28;20240;-62
2021/12/07 10:23:22;;;;;;;4.63;1.40;;;;;;;3.98;98.51;97893.88;5099494;28;20297;-62
2021/12/07 10:25:52;;;;;;;4.20;2.03;;;;;;;4.07;100.00;97883.00;5100976;28;20230;-62
2021/12/07 10:28:28;;;;;;;4.10;1.40;;;;;;;4.08;99.90;97878.59;5102404;28;20218;-62
2021/12/07 10:30:55;;;;;;;3.30;1.37;;;;;;;4.20;97.83;97883.25;5099741;28;20207;-62
2021/12/07 10:33:30;;;;;;;3.33;1.77;;;;;;;4.33;95.62;97876.53;5101285;28;20231;-62
2021/12/07 10:36:07;;;;;;;4.50;1.40;;;;;;;4.30;95.31;97880.13;5104246;28;20676;-62
2021/12/07 10:38:34;;;;;;;6.73;1.30;;;;;;;4.27;93.88;97877.66;5099063;28;20206;-62
2021/12/07 10:41:05;;;;;;;3.17;1.53;;;;;;;4.27;96.16;97877.66;5107031;28;20226;-62
2021/12/07 10:43:51;;;;;;;2.80;1.33;;;;;;;4.20;95.99;97868.41;5101391;28;20224;-62
2021/12/07 10:46:33;;;;;;;4.70;1.40;;;;;;;4.24;94.77;97864.75;5099906;28;20240;-63
2021/12/07 10:49:19;;;;;;;2.37;1.30;;;;;;;4.30;96.27;97864.44;5098696;28;20210;-62
2021/12/07 10:52:04;;;;;;;5.53;1.77;;;;;;;4.56;97.30;97860.53;5104642;28;20671;-62
2021/12/07 10:54:34;;;;;;;5.07;1.40;;;;;;;4.89;94.79;97853.63;5100687;28;20221;-62
2021/12/07 10:57:02;;;;;;;3.53;1.63;;;;;;;5.08;91.63;97849.94;5106976;28;20589;-62
2021/12/07 10:59:32;;;;;;;5.37;1.60;;;;;;;5.23;91.10;97833.44;5102949;28;20245;-62
2021/12/07 11:02:00;;;;;;;3.53;1.60;;;;;;;5.36;91.80;97826.63;5105428;28;20233;-62
2021/12/07 11:04:30;;;;;;;3.97;1.37;;;;;;;5.56;90.26;97826.38;5106109;28;20219;-62
2021/12/07 11:07:09;;;;;;;5.80;1.57;;;;;;;5.58;87.60;97819.31;5104098;28;20712;-62
2021/12/07 11:09:42;;;;;;;6.33;1.50;;;;;;;5.67;86.33;97815.34;5112165;28;20693;-62
2021/12/07 11:12:11;;;;;;;3.07;1.37;;;;;;;5.64;86.22;97813.72;5113024;28;20247;-62
2021/12/07 11:14:47;;;;;;;4.20;1.40;;;;;;;5.63;85.53;97817.25;5109614;28;20220;-63
2021/12/07 11:17:13;;;;;;;4.00;1.37;;;;;;;5.52;88.09;97814.41;5112470;28;20552;-62
2021/12/07 11:19:40;;;;;;;3.40;1.10;;;;;;;5.46;85.18;97819.97;5112789;28;20209;-62
2021/12/07 11:22:06;;;;;;;5.07;1.47;;;;;;;5.41;86.45;97806.25;5112712;28;20221;-63
2021/12/07 11:24:38;;;;;;;3.80;1.17;;;;;;;5.29;86.88;97806.06;5110778;28;20220;-63
2021/12/07 11:30:00;;;;;;;2.87;1.40;;;;;;;4.95;87.77;97807.00;5103162;28;20270;-63
2021/12/07 11:32:27;;;;;;;4.13;1.10;;;;;;;4.84;87.17;97814.56;5109918;28;20223;-62
2021/12/07 11:34:53;;;;;;;1.87;1.03;;;;;;;4.75;86.42;97799.34;5106477;28;20225;-62
2021/12/07 11:37:22;;;;;;;7.07;1.53;;;;;;;4.71;86.61;97803.03;5108520;28;20683;-63
2021/12/07 11:39:53;;;;;;;3.60;1.30;;;;;;;4.64;89.42;97798.19;5110185;28;20212;-62
2021/12/07 11:42:24;;;;;;;3.13;1.40;;;;;;;4.68;88.56;97792.72;5108392;28;20216;-63
2021/12/07 11:44:53;;;;;;;4.17;1.60;;;;;;;4.74;88.31;97805.50;5108286;28;20314;-63
2021/12/07 11:47:28;;;;;;;6.00;1.50;;;;;;;4.82;90.17;97805.94;5112340;28;20588;-63
2021/12/07 11:49:55;;;;;;;3.80;1.60;;;;;;;5.11;87.53;97800.03;5112141;28;20216;-66
2021/12/07 11:52:23;;;;;;;3.20;1.50;;;;;;;5.36;86.70;97797.78;5110122;28;20221;-66
2021/12/07 11:54:50;;;;;;;3.90;1.60;;;;;;;5.55;88.02;97800.28;5112002;28;20697;-66
2021/12/07 11:57:19;;;;;;;4.97;1.27;;;;;;;5.67;85.77;97795.19;5112278;28;20222;-67
2021/12/07 11:59:48;;;;;;;2.47;1.27;;;;;;;5.81;84.33;97787.44;5111861;28;20213;-67
2021/12/07 12:02:15;;;;;;;2.37;1.10;;;;;;;5.90;82.86;97783.47;5108137;28;20222;-67
2021/12/07 12:04:43;;;;;;;4.67;1.60;;;;;;;5.92;81.03;97781.63;5109468;28;20239;-67
2021/12/07 12:07:10;;;;;;;2.53;1.27;;;;;;;5.97;82.03;97784.81;5106886;28;20321;-67
2021/12/07 12:09:44;;;;;;;3.47;1.30;;;;;;;6.00;81.42;97777.63;5110616;28;20436;-67
2021/12/07 12:12:18;;;;;;;2.73;1.13;;;;;;;5.92;80.53;97776.38;5108182;28;20286;-67
2021/12/07 12:14:59;;;;;;;4.40;1.20;;;;;;;5.94;80.01;97764.88;5110356;28;20231;-67
2021/12/07 12:17:41;;;;;;;3.60;1.03;;;;;;;6.02;79.23;97761.78;5111313;28;20214;-67
2021/12/07 12:20:31;;;;;;;3.03;1.07;;;;;;;6.10;80.46;97757.78;5108212;28;20295;-67
2021/12/07 12:23:08;;;;;;;3.47;1.27;;;;;;;6.12;77.14;97742.81;5114312;28;20221;-67
2021/12/07 12:25:36;;;;;;;3.03;1.27;;;;;;;6.00;76.30;97730.41;5103712;28;20723;-67
2021/12/07 12:28:03;;;;;;;3.20;1.10;;;;;;;6.03;78.71;97732.84;5108091;28;20213;-67
2021/12/07 12:30:34;;;;;;;3.10;1.20;;;;;;;6.00;77.17;97727.81;5110021;28;20217;-67
2021/12/07 12:33:04;;;;;;;2.47;1.40;;;;;;;6.10;77.53;97720.25;5110499;28;20212;-67
2021/12/07 12:35:40;;;;;;;3.87;1.10;;;;;;;6.29;78.47;97713.81;5106124;28;20220;-67
2021/12/07 12:38:17;;;;;;;4.20;1.27;;;;;;;6.37;77.59;97716.84;5111782;28;20662;-67
2021/12/07 12:40:43;;;;;;;2.20;0.90;;;;;;;6.47;77.09;97712.72;5110087;28;20237;-67
2021/12/07 12:43:12;;;;;;;4.43;1.10;;;;;;;6.69;78.01;97713.13;5107148;28;20212;-67
2021/12/07 12:45:42;;;;;;;1.83;1.10;;;;;;;6.78;75.62;97706.50;5112597;28;20217;-67
2021/12/07 12:48:11;;;;;;;2.70;1.00;;;;;;;6.93;75.66;97701.13;5107659;28;20305;-67
2021/12/07 12:50:49;;;;;;;2.03;0.90;;;;;;;7.04;75.29;97698.69;5106607;28;20218;-67
2021/12/07 12:53:17;;;;;;;3.93;1.30;;;;;;;7.07;75.99;97698.50;5104569;28;20224;-67
2021/12/07 12:55:46;;;;;;;1.93;0.93;;;;;;;7.10;77.39;97708.84;5107299;28;20224;-67
2021/12/07 12:58:17;;;;;;;2.70;1.03;;;;;;;7.07;77.80;97714.25;5107923;28;20215;-67
2021/12/07 13:01:08;;;;;;;1.90;1.00;;;;;;;7.00;78.30;97712.97;5111154;28;20210;-67
2021/12/07 13:03:53;;;;;;;2.70;1.60;;;;;;;6.95;78.97;97707.13;5105800;28;20213;-67
2021/12/07 13:06:38;;;;;;;2.47;1.10;;;;;;;6.89;77.73;97718.03;5102807;28;20245;-67